createdAt,value
2023-01-10T00:00:48.881Z,5.00
2023-01-10T00:03:18.369Z,5.00
2023-01-10T00:05:44.976Z,5.00
2023-01-10T00:08:16.187Z,4.90
2023-01-10T00:10:42.819Z,5.00
2023-01-10T00:13:26.336Z,5.00
2023-01-10T00:15:55.343Z,5.00
2023-01-10T00:18:22.507Z,5.00
2023-01-10T00:20:51.970Z,5.00
2023-01-10T00:23:19.777Z,5.00
2023-01-10T00:25:46.616Z,5.00
2023-01-10T00:28:19.261Z,5.00
2023-01-10T00:31:06.585Z,5.00
2023-01-10T00:33:34.657Z,5.00
2023-01-10T00:36:06.132Z,5.00
2023-01-10T00:38:34.485Z,5.00
2023-01-10T00:41:01.713Z,5.00
2023-01-10T00:43:46.824Z,5.00
2023-01-10T00:46:13.664Z,5.00
2023-01-10T00:48:41.316Z,5.00
2023-01-10T00:51:07.970Z,5.00
2023-01-10T00:53:34.629Z,5.00
2023-01-10T00:56:01.306Z,5.00
2023-01-10T00:58:27.952Z,5.10
2023-01-10T01:00:54.590Z,5.10
2023-01-10T01:03:23.164Z,5.10
2023-01-10T01:05:56.035Z,5.10
2023-01-10T01:08:22.652Z,5.00
2023-01-10T01:10:49.452Z,5.00
2023-01-10T01:13:19.226Z,5.00
2023-01-10T01:15:46.083Z,5.00
2023-01-10T01:18:15.744Z,5.00
2023-01-10T01:20:45.579Z,5.00
2023-01-10T01:23:13.345Z,5.00
2023-01-10T01:25:40.406Z,5.00
2023-01-10T01:28:07.963Z,5.10
2023-01-10T01:30:34.892Z,5.10
2023-01-10T01:33:01.507Z,5.10
2023-01-10T01:35:28.196Z,5.10
2023-01-10T01:37:54.819Z,5.10
2023-01-10T01:40:23.265Z,5.10
2023-01-10T01:42:55.516Z,5.10
2023-01-10T01:45:32.055Z,5.10
2023-01-10T01:47:58.631Z,5.10
2023-01-10T01:50:33.542Z,5.10
2023-01-10T01:53:01.639Z,5.10
2023-01-10T01:55:31.246Z,5.10
2023-01-10T01:58:01.551Z,5.10
2023-01-10T02:00:28.224Z,5.10
2023-01-10T02:03:02.572Z,5.10
2023-01-10T02:05:31.875Z,5.10
2023-01-10T02:07:59.669Z,5.10
2023-01-10T02:10:46.383Z,5.10
2023-01-10T02:13:15.574Z,5.10
2023-01-10T02:15:42.491Z,5.10
2023-01-10T02:18:09.577Z,5.20
2023-01-10T02:21:14.228Z,5.10
2023-01-10T02:24:07.496Z,5.20
2023-01-10T02:26:59.241Z,5.10
2023-01-10T02:29:44.355Z,5.10
2023-01-10T02:33:00.620Z,5.20
2023-01-10T02:36:04.559Z,5.10
2023-01-10T02:38:55.736Z,5.10
2023-01-10T02:41:36.303Z,5.20
2023-01-10T02:44:11.884Z,5.10
2023-01-10T02:46:39.512Z,5.10
2023-01-10T02:49:06.732Z,5.20
2023-01-10T02:51:33.471Z,5.10
2023-01-10T02:54:13.484Z,5.10
2023-01-10T02:56:59.054Z,5.10
2023-01-10T02:59:46.743Z,5.10
2023-01-10T03:02:43.804Z,5.10
2023-01-10T03:05:27.047Z,5.10
2023-01-10T03:08:00.472Z,5.10
2023-01-10T03:10:44.631Z,5.00
2023-01-10T03:13:23.928Z,5.00
2023-01-10T03:15:54.451Z,5.00
2023-01-10T03:18:26.913Z,5.00
2023-01-10T03:20:58.416Z,5.00
2023-01-10T03:23:26.562Z,5.10
2023-01-10T03:25:56.183Z,5.00
2023-01-10T03:28:45.443Z,5.00
2023-01-10T03:31:19.162Z,5.00
2023-01-10T03:33:48.756Z,5.10
2023-01-10T03:37:03.181Z,5.00
2023-01-10T03:39:39.909Z,5.00
2023-01-10T03:42:18.977Z,5.00
2023-01-10T03:45:04.648Z,5.10
2023-01-10T03:47:41.173Z,5.00
2023-01-10T03:50:13.307Z,5.10
2023-01-10T03:52:42.115Z,5.10
2023-01-10T03:55:13.095Z,5.10
2023-01-10T03:57:42.857Z,5.10
2023-01-10T04:00:11.787Z,5.10
2023-01-10T04:02:38.753Z,5.10
2023-01-10T04:05:06.432Z,5.00
2023-01-10T04:07:33.087Z,5.10
2023-01-10T04:09:59.791Z,5.00
2023-01-10T04:12:27.474Z,5.10
2023-01-10T04:14:54.315Z,5.10
2023-01-10T04:17:20.936Z,5.00
2023-01-10T04:19:50.327Z,5.00
2023-01-10T04:22:16.936Z,5.00
2023-01-10T04:24:44.188Z,5.00
2023-01-10T04:27:11.615Z,5.00
2023-01-10T04:29:38.224Z,5.00
2023-01-10T04:32:05.163Z,5.00
2023-01-10T04:34:31.777Z,5.00
2023-01-10T04:36:58.466Z,4.90
2023-01-10T04:39:25.183Z,4.90
2023-01-10T04:41:51.807Z,4.80
2023-01-10T04:44:18.422Z,4.90
2023-01-10T04:46:45.413Z,4.80
2023-01-10T04:49:12.184Z,4.80
2023-01-10T04:51:38.880Z,4.80
2023-01-10T04:54:05.576Z,4.80
2023-01-10T04:56:32.283Z,4.80
2023-01-10T04:58:59.072Z,4.80
2023-01-10T05:01:26.483Z,4.80
2023-01-10T05:03:55.175Z,4.80
2023-01-10T05:06:24.092Z,4.80
2023-01-10T05:08:50.884Z,4.80
2023-01-10T05:11:17.586Z,4.70
2023-01-10T05:13:45.487Z,4.70
2023-01-10T05:16:13.778Z,4.70
2023-01-10T05:18:40.514Z,4.70
2023-01-10T05:21:09.679Z,4.70
2023-01-10T05:23:36.898Z,4.70
2023-01-10T05:26:12.907Z,4.70
2023-01-10T05:28:39.957Z,4.70
2023-01-10T05:31:08.240Z,4.70
2023-01-10T05:33:35.108Z,4.70
2023-01-10T05:36:06.520Z,4.80
2023-01-10T05:38:33.865Z,4.80
2023-01-10T05:41:00.754Z,4.80
2023-01-10T05:43:28.178Z,4.80
2023-01-10T05:45:57.818Z,4.80
2023-01-10T05:48:24.527Z,4.80
2023-01-10T05:50:52.016Z,4.90
2023-01-10T05:53:20.158Z,4.90
2023-01-10T05:55:54.679Z,4.90
2023-01-10T05:58:21.595Z,4.90
2023-01-10T06:00:48.237Z,4.90
2023-01-10T06:03:15.161Z,5.00
2023-01-10T06:05:42.234Z,5.00
2023-01-10T06:08:10.025Z,5.00
2023-01-10T06:10:36.692Z,5.00
2023-01-10T06:13:05.099Z,5.00
2023-01-10T06:15:33.314Z,5.00
2023-01-10T06:17:59.955Z,5.00
2023-01-10T06:20:26.794Z,5.00
2023-01-10T06:22:54.137Z,5.10
2023-01-10T06:25:20.982Z,5.10
2023-01-10T06:27:47.685Z,5.00
2023-01-10T06:30:15.059Z,5.00
2023-01-10T06:32:42.420Z,5.00
2023-01-10T06:35:10.086Z,5.00
2023-01-10T06:37:37.124Z,5.00
2023-01-10T06:40:04.815Z,5.00
2023-01-10T06:42:31.503Z,5.00
2023-01-10T06:44:58.112Z,4.90
2023-01-10T06:47:25.051Z,4.90
2023-01-10T06:49:52.215Z,4.90
2023-01-10T06:52:18.863Z,5.00
2023-01-10T06:54:45.532Z,5.00
2023-01-10T06:57:12.175Z,5.00
2023-01-10T06:59:38.785Z,5.00
2023-01-10T07:02:05.555Z,5.00
2023-01-10T07:04:32.302Z,5.00
2023-01-10T07:06:59.183Z,5.00
2023-01-10T07:09:25.795Z,5.00
2023-01-10T07:11:53.024Z,5.00
2023-01-10T07:14:19.907Z,5.00
2023-01-10T07:16:46.565Z,5.00
2023-01-10T07:19:17.489Z,5.00
2023-01-10T07:21:44.718Z,4.90
2023-01-10T07:24:11.507Z,5.00
2023-01-10T07:26:38.293Z,5.00
2023-01-10T07:29:05.272Z,5.00
2023-01-10T07:31:31.972Z,5.00
2023-01-10T07:33:58.673Z,5.00
2023-01-10T07:36:25.383Z,5.00
2023-01-10T07:38:52.440Z,5.10
2023-01-10T07:41:19.101Z,5.00
2023-01-10T07:43:45.790Z,5.10
2023-01-10T07:46:12.639Z,5.10
2023-01-10T07:48:41.684Z,5.10
2023-01-10T07:51:08.796Z,5.20
2023-01-10T07:53:35.472Z,5.10
2023-01-10T07:56:03.544Z,5.10
2023-01-10T07:58:30.699Z,5.10
2023-01-10T08:01:02.459Z,5.10
2023-01-10T08:03:30.185Z,5.10
2023-01-10T08:06:01.226Z,5.10
2023-01-10T08:08:28.491Z,5.10
2023-01-10T08:10:57.681Z,5.10
2023-01-10T08:13:24.622Z,5.10
2023-01-10T08:15:52.369Z,5.10
2023-01-10T08:18:20.416Z,5.10
2023-01-10T08:20:49.478Z,5.20
2023-01-10T08:23:16.730Z,5.20
2023-01-10T08:25:44.057Z,5.20
2023-01-10T08:28:11.280Z,5.20
2023-01-10T08:30:38.375Z,5.20
2023-01-10T08:33:07.361Z,5.20
2023-01-10T08:35:43.702Z,5.20
2023-01-10T08:38:11.194Z,5.20
2023-01-10T08:40:38.059Z,5.20
2023-01-10T08:43:07.081Z,5.20
2023-01-10T08:45:34.706Z,5.20
2023-01-10T08:48:01.786Z,5.20
2023-01-10T08:50:28.413Z,5.30
2023-01-10T08:53:00.808Z,5.20
2023-01-10T08:55:28.754Z,5.30
2023-01-10T08:57:55.391Z,5.20
2023-01-10T09:00:22.577Z,5.30
2023-01-10T09:02:49.296Z,5.30
2023-01-10T09:05:27.107Z,5.20
2023-01-10T09:07:59.840Z,5.20
2023-01-10T09:10:27.228Z,5.30
2023-01-10T09:12:56.668Z,5.30
2023-01-10T09:15:26.469Z,5.30
2023-01-10T09:17:54.841Z,5.30
2023-01-10T09:20:22.824Z,5.30
2023-01-10T09:22:49.515Z,5.30
2023-01-10T09:25:16.339Z,5.30
2023-01-10T09:27:43.325Z,5.30
2023-01-10T09:30:10.631Z,5.30
2023-01-10T09:32:37.449Z,5.20
2023-01-10T09:35:04.710Z,5.20
2023-01-10T09:37:33.602Z,5.30
2023-01-10T09:40:00.611Z,5.30
2023-01-10T09:42:51.974Z,5.20
2023-01-10T09:45:43.463Z,5.20
2023-01-10T09:48:24.045Z,5.20
2023-01-10T09:51:09.760Z,5.20
2023-01-10T09:53:41.602Z,5.30
2023-01-10T09:56:09.634Z,5.30
2023-01-10T09:58:38.315Z,5.40
2023-01-10T10:01:10.659Z,5.40
2023-01-10T10:03:46.259Z,5.40
2023-01-10T10:06:14.491Z,5.40
2023-01-10T10:08:46.567Z,5.50
2023-01-10T10:11:25.546Z,5.50
2023-01-10T10:14:21.004Z,5.50
2023-01-10T10:16:47.584Z,5.50
2023-01-10T10:19:52.865Z,5.50
2023-01-10T10:22:47.064Z,5.60
2023-01-10T10:25:28.472Z,5.60
2023-01-10T10:27:55.045Z,5.60
2023-01-10T10:30:35.990Z,5.60
2023-01-10T10:33:27.183Z,5.60
2023-01-10T10:36:03.832Z,5.70
2023-01-10T10:38:34.985Z,5.70
2023-01-10T10:41:01.874Z,5.70
2023-01-10T10:43:36.915Z,5.70
2023-01-10T10:46:13.801Z,5.70
2023-01-10T10:48:44.039Z,5.70
2023-01-10T10:51:19.425Z,5.70
2023-01-10T10:53:47.383Z,5.70
2023-01-10T10:56:17.855Z,5.70
2023-01-10T10:58:48.175Z,5.70
2023-01-10T11:01:16.345Z,5.70
2023-01-10T11:03:51.409Z,5.80
2023-01-10T11:06:20.107Z,5.80
2023-01-10T11:08:49.892Z,5.80
2023-01-10T11:11:33.990Z,5.80
2023-01-10T11:14:04.076Z,5.80
2023-01-10T11:16:33.668Z,5.80
2023-01-10T11:19:24.695Z,5.80
2023-01-10T11:22:01.664Z,5.90
2023-01-10T11:24:34.353Z,5.80
2023-01-10T11:27:22.001Z,5.90
2023-01-10T11:29:51.488Z,5.90
2023-01-10T11:32:22.326Z,5.90
2023-01-10T11:34:55.760Z,6.00
2023-01-10T11:37:31.523Z,5.90
2023-01-10T11:40:14.770Z,5.90
2023-01-10T11:42:41.703Z,6.10
2023-01-10T11:45:17.194Z,6.00
2023-01-10T11:47:47.710Z,5.90
2023-01-10T11:50:21.718Z,6.00
2023-01-10T11:52:49.864Z,6.00
2023-01-10T11:55:28.446Z,6.10
2023-01-10T11:58:12.619Z,6.10
2023-01-10T12:00:49.968Z,6.10
2023-01-10T12:03:26.657Z,6.00
2023-01-10T12:05:56.912Z,6.10
2023-01-10T12:08:38.300Z,6.10
2023-01-10T12:11:11.327Z,6.10
2023-01-10T12:13:51.425Z,6.10
2023-01-10T12:16:30.980Z,6.00
2023-01-10T12:19:00.628Z,6.10
2023-01-10T12:21:30.415Z,6.20
2023-01-10T12:24:04.891Z,6.30
2023-01-10T12:26:33.516Z,6.20
2023-01-10T12:29:08.566Z,6.20
2023-01-10T12:31:38.973Z,6.20
2023-01-10T12:34:16.704Z,6.20
2023-01-10T12:36:49.107Z,6.20
2023-01-10T12:39:20.514Z,6.20
2023-01-10T12:42:11.224Z,6.20
2023-01-10T12:44:37.876Z,6.10
2023-01-10T12:47:16.146Z,6.10
2023-01-10T12:50:05.881Z,6.20
2023-01-10T12:52:45.443Z,6.20
2023-01-10T12:55:42.671Z,6.10
2023-01-10T12:58:17.968Z,6.10
2023-01-10T13:00:49.461Z,6.20
2023-01-10T13:03:20.697Z,6.20
2023-01-10T13:05:49.565Z,6.20
2023-01-10T13:08:20.194Z,6.10
2023-01-10T13:10:49.654Z,6.10
2023-01-10T13:13:20.917Z,6.00
2023-01-10T13:15:57.073Z,6.10
2023-01-10T13:18:27.263Z,6.00
2023-01-10T13:21:08.782Z,6.10
2023-01-10T13:23:46.448Z,6.10
2023-01-10T13:26:13.138Z,6.10
2023-01-10T13:28:52.449Z,6.10
2023-01-10T13:31:33.270Z,6.10
2023-01-10T13:34:20.239Z,6.10
2023-01-10T13:36:56.577Z,6.10
2023-01-10T13:39:36.954Z,6.10
2023-01-10T13:42:22.146Z,6.00
2023-01-10T13:45:01.249Z,6.00
2023-01-10T13:47:40.242Z,5.90
2023-01-10T13:50:25.482Z,5.90
2023-01-10T13:53:15.626Z,5.90
2023-01-10T13:55:42.581Z,5.90
2023-01-10T13:58:21.009Z,5.90
2023-01-10T14:01:11.360Z,5.90
2023-01-10T14:03:43.874Z,5.80
2023-01-10T14:06:37.687Z,5.80
2023-01-10T14:09:12.218Z,5.90
2023-01-10T14:11:45.066Z,5.90
2023-01-10T14:14:32.427Z,5.90
2023-01-10T14:17:18.984Z,5.90
2023-01-10T14:19:48.319Z,5.80
2023-01-10T14:22:33.723Z,5.80
2023-01-10T14:25:02.809Z,5.80
2023-01-10T14:27:44.727Z,5.80
2023-01-10T14:30:24.473Z,5.70
2023-01-10T14:32:57.615Z,5.80
2023-01-10T14:35:36.113Z,5.80
2023-01-10T14:38:04.015Z,5.70
2023-01-10T14:40:43.352Z,5.70
2023-01-10T14:43:15.752Z,5.70
2023-01-10T14:46:05.969Z,5.70
2023-01-10T14:48:39.543Z,5.70
2023-01-10T14:51:10.396Z,5.70
2023-01-10T14:53:37.027Z,5.70
2023-01-10T14:56:03.906Z,5.60
2023-01-10T14:58:30.537Z,5.60
2023-01-10T15:00:57.682Z,5.60
2023-01-10T15:03:28.235Z,5.60
2023-01-10T15:05:57.197Z,5.60
2023-01-10T15:08:30.101Z,5.70
2023-01-10T15:11:03.815Z,5.60
2023-01-10T15:13:34.103Z,5.60
2023-01-10T15:16:01.250Z,5.60
2023-01-10T15:18:39.302Z,5.60
2023-01-10T15:21:06.603Z,5.60
2023-01-10T15:23:42.188Z,5.60
2023-01-10T15:26:17.115Z,5.60
2023-01-10T15:29:02.606Z,5.50
2023-01-10T15:31:29.383Z,5.50
2023-01-10T15:33:56.779Z,5.50
2023-01-10T15:36:26.993Z,5.50
2023-01-10T15:38:54.132Z,5.40
2023-01-10T15:41:23.671Z,5.40
2023-01-10T15:43:51.938Z,5.40
2023-01-10T15:46:21.990Z,5.30
2023-01-10T15:49:25.162Z,5.30
2023-01-10T15:51:52.486Z,5.30
2023-01-10T15:54:19.341Z,5.20
2023-01-10T15:56:52.231Z,5.20
2023-01-10T15:59:32.743Z,5.20
2023-01-10T16:01:59.724Z,5.20
2023-01-10T16:04:27.020Z,5.20
2023-01-10T16:07:05.584Z,5.20
2023-01-10T16:09:32.539Z,5.10
2023-01-10T16:12:17.653Z,5.20
2023-01-10T16:14:44.282Z,5.20
2023-01-10T16:17:12.423Z,5.20
2023-01-10T16:19:39.112Z,5.10
2023-01-10T16:22:06.164Z,5.10
2023-01-10T16:24:35.542Z,5.10
2023-01-10T16:27:05.940Z,5.10
2023-01-10T16:29:33.563Z,5.10
2023-01-10T16:32:00.364Z,5.10
2023-01-10T16:34:27.182Z,5.10
2023-01-10T16:36:53.901Z,5.10
2023-01-10T16:39:23.222Z,5.10
2023-01-10T16:42:09.161Z,5.00
2023-01-10T16:44:36.366Z,5.00
2023-01-10T16:47:06.609Z,5.00
2023-01-10T16:49:33.804Z,5.00
2023-01-10T16:52:00.460Z,5.00
2023-01-10T16:54:28.077Z,5.00
2023-01-10T16:56:55.292Z,5.00
2023-01-10T16:59:21.929Z,5.00
2023-01-10T17:01:55.006Z,5.00
2023-01-10T17:04:29.698Z,5.00
2023-01-10T17:06:56.978Z,5.00
2023-01-10T17:09:29.102Z,5.00
2023-01-10T17:12:02.128Z,5.00
2023-01-10T17:14:34.543Z,5.00
2023-01-10T17:17:04.510Z,5.00
2023-01-10T17:19:31.247Z,5.00
2023-01-10T17:21:57.919Z,5.00
2023-01-10T17:24:24.651Z,5.00
2023-01-10T17:26:51.409Z,5.00
2023-01-10T17:29:18.030Z,5.00
2023-01-10T17:31:44.815Z,5.10
2023-01-10T17:34:14.370Z,5.00
2023-01-10T17:36:41.935Z,5.10
2023-01-10T17:39:08.597Z,5.10
2023-01-10T17:41:35.715Z,5.10
2023-01-10T17:44:02.340Z,5.20
2023-01-10T17:46:29.053Z,5.20
2023-01-10T17:48:55.674Z,5.20
2023-01-10T17:51:24.773Z,5.20
2023-01-10T17:53:54.017Z,5.20
2023-01-10T17:56:21.072Z,5.20
2023-01-10T17:58:48.049Z,5.20
2023-01-10T18:01:22.895Z,5.20
2023-01-10T18:03:51.582Z,5.20
2023-01-10T18:06:24.141Z,5.20
2023-01-10T18:08:51.983Z,5.10
2023-01-10T18:11:18.709Z,5.10
2023-01-10T18:13:46.257Z,5.10
2023-01-10T18:16:13.548Z,5.20
2023-01-10T18:18:40.138Z,5.10
2023-01-10T18:21:15.477Z,5.20
2023-01-10T18:23:42.130Z,5.20
2023-01-10T18:26:11.747Z,5.10
2023-01-10T18:28:43.939Z,5.10
2023-01-10T18:31:20.763Z,5.10
2023-01-10T18:33:48.140Z,5.10
2023-01-10T18:36:20.287Z,5.10
2023-01-10T18:38:48.213Z,5.10
2023-01-10T18:41:21.622Z,5.10
2023-01-10T18:43:48.453Z,5.10
2023-01-10T18:46:19.307Z,5.10
2023-01-10T18:48:46.932Z,5.10
2023-01-10T18:51:14.580Z,5.10
2023-01-10T18:53:42.404Z,5.10
2023-01-10T18:56:10.230Z,5.10
2023-01-10T18:58:39.558Z,5.10
2023-01-10T19:01:10.398Z,5.10
2023-01-10T19:03:37.808Z,5.20
2023-01-10T19:06:06.292Z,5.20
2023-01-10T19:08:33.069Z,5.20
2023-01-10T19:11:12.925Z,5.20
2023-01-10T19:13:44.598Z,5.20
2023-01-10T19:16:26.306Z,5.10
2023-01-10T19:18:55.121Z,5.10
2023-01-10T19:21:22.812Z,5.10
2023-01-10T19:23:51.930Z,5.00
2023-01-10T19:26:18.795Z,5.00
2023-01-10T19:28:45.787Z,5.00
2023-01-10T19:31:17.600Z,5.00
2023-01-10T19:33:45.956Z,4.90
2023-01-10T19:36:12.845Z,4.90
2023-01-10T19:38:39.519Z,4.80
2023-01-10T19:41:06.564Z,4.80
2023-01-10T19:43:33.874Z,4.80
2023-01-10T19:46:08.404Z,4.80
2023-01-10T19:48:38.310Z,4.80
2023-01-10T19:51:10.879Z,4.80
2023-01-10T19:53:41.877Z,4.70
2023-01-10T19:56:10.075Z,4.70
2023-01-10T19:58:38.159Z,4.70
2023-01-10T20:01:13.824Z,4.70
2023-01-10T20:03:42.053Z,4.70
2023-01-10T20:06:17.067Z,4.70
2023-01-10T20:08:44.823Z,4.60
2023-01-10T20:11:11.998Z,4.60
2023-01-10T20:13:44.615Z,4.70
2023-01-10T20:16:19.892Z,4.60
2023-01-10T20:18:47.863Z,4.60
2023-01-10T20:21:17.041Z,4.60
2023-01-10T20:23:44.484Z,4.60
2023-01-10T20:26:17.076Z,4.50
2023-01-10T20:28:45.259Z,4.50
2023-01-10T20:31:18.479Z,4.50
2023-01-10T20:33:45.196Z,4.50
2023-01-10T20:36:15.311Z,4.50
2023-01-10T20:38:42.508Z,4.50
2023-01-10T20:41:14.614Z,4.40
2023-01-10T20:43:41.921Z,4.40
2023-01-10T20:46:14.350Z,4.40
2023-01-10T20:48:41.860Z,4.40
2023-01-10T20:51:11.838Z,4.30
2023-01-10T20:53:38.526Z,4.30
2023-01-10T20:56:35.681Z,4.30
2023-01-10T20:59:02.910Z,4.30
2023-01-10T21:01:35.158Z,4.30
2023-01-10T21:04:04.704Z,4.30
2023-01-10T21:06:32.013Z,4.30
2023-01-10T21:08:58.948Z,4.30
2023-01-10T21:11:25.705Z,4.30
2023-01-10T21:13:52.423Z,4.30
2023-01-10T21:16:21.860Z,4.30
2023-01-10T21:18:48.683Z,4.30
2023-01-10T21:21:18.521Z,4.30
2023-01-10T21:23:45.161Z,4.40
2023-01-10T21:26:14.735Z,4.40
2023-01-10T21:28:46.363Z,4.40
2023-01-10T21:31:15.480Z,4.50
2023-01-10T21:33:42.290Z,4.50
2023-01-10T21:36:09.699Z,4.50
2023-01-10T21:38:36.455Z,4.50
2023-01-10T21:41:09.549Z,4.60
2023-01-10T21:43:36.430Z,4.60
2023-01-10T21:46:03.407Z,4.60
2023-01-10T21:48:30.265Z,4.60
2023-01-10T21:50:57.983Z,4.60
2023-01-10T21:53:25.983Z,4.70
2023-01-10T21:55:52.632Z,4.70
2023-01-10T21:58:26.599Z,4.80
2023-01-10T22:00:58.702Z,4.70
2023-01-10T22:03:25.910Z,4.80
2023-01-10T22:05:53.508Z,4.70
2023-01-10T22:08:20.554Z,4.70
2023-01-10T22:10:47.414Z,4.80
2023-01-10T22:13:14.289Z,4.80
2023-01-10T22:15:41.194Z,4.80
2023-01-10T22:18:08.501Z,4.70
2023-01-10T22:20:35.152Z,4.70
2023-01-10T22:23:01.909Z,4.80
2023-01-10T22:25:28.607Z,4.80
2023-01-10T22:27:55.698Z,4.80
2023-01-10T22:30:22.604Z,4.80
2023-01-10T22:32:49.228Z,4.80
2023-01-10T22:35:15.920Z,4.90
2023-01-10T22:37:42.843Z,4.90
2023-01-10T22:40:10.286Z,4.90
2023-01-10T22:42:36.927Z,4.90
2023-01-10T22:45:03.794Z,4.90
2023-01-10T22:47:30.669Z,4.90
2023-01-10T22:49:57.252Z,4.90
2023-01-10T22:52:23.848Z,4.90
2023-01-10T22:54:50.478Z,4.90
2023-01-10T22:57:17.125Z,5.00
2023-01-10T22:59:43.704Z,5.00
2023-01-10T23:02:10.390Z,5.00
2023-01-10T23:04:37.069Z,5.00
2023-01-10T23:07:03.706Z,5.00
2023-01-10T23:09:31.801Z,5.00
2023-01-10T23:11:58.628Z,5.00
2023-01-10T23:14:25.266Z,5.10
2023-01-10T23:16:51.931Z,5.10
2023-01-10T23:19:18.586Z,5.10
2023-01-10T23:21:45.177Z,5.10
2023-01-10T23:24:14.758Z,5.10
2023-01-10T23:26:41.361Z,5.10
2023-01-10T23:29:08.109Z,5.10
2023-01-10T23:31:34.734Z,5.20
2023-01-10T23:34:01.371Z,5.20
2023-01-10T23:36:28.039Z,5.20
2023-01-10T23:38:54.726Z,5.20
2023-01-10T23:41:46.877Z,5.20
2023-01-10T23:44:13.637Z,5.20
2023-01-10T23:46:40.274Z,5.20
2023-01-10T23:49:06.974Z,5.20
2023-01-10T23:51:33.620Z,5.10
2023-01-10T23:54:00.261Z,5.10
2023-01-10T23:56:26.874Z,5.10
2023-01-10T23:58:53.485Z,5.20
